Time;durP1;ratioP1;P1;durP2;ratioP2;P2;SDS_P1;SDS_P2;PMS_P1;PMS_P2;Temp;Humidity;BMP_temperature;BMP_pressure;BME280_temperature;BME280_humidity;BME280_pressure;Samples;Min_cycle;Max_cycle;Signal;HPM_P1;HPM_P2
2022/02/10 00:20:57;;;;;;;8.02;4.20;;;-1.00;99.90;;;;;;5006909;28;20025;-49
2022/02/10 00:34:30;;;;;;;4.88;2.90;;;-1.10;99.90;;;;;;4989890;28;20045;-49
2022/02/10 00:42:12;;;;;;;6.78;3.50;;;-1.10;99.90;;;;;;5006229;28;20080;-48
2022/02/10 00:44:38;;;;;;;5.07;3.65;;;-1.10;99.90;;;;;;5005736;28;20495;-47
2022/02/10 00:47:04;;;;;;;7.10;3.75;;;-1.20;99.90;;;;;;5006772;28;20030;-48
2022/02/10 00:49:30;;;;;;;10.10;5.15;;;-1.30;99.90;;;;;;5007072;28;20041;-49
2022/02/10 00:51:56;;;;;;;5.85;3.72;;;-1.30;99.90;;;;;;5006402;28;20422;-48
2022/02/10 00:54:26;;;;;;;5.95;3.85;;;-1.30;99.90;;;;;;5006276;28;20048;-47
2022/02/10 00:56:56;;;;;;;9.48;4.65;;;-1.20;99.90;;;;;;5005212;28;20037;-48
2022/02/10 01:32:20;;;;;;;4.18;3.30;;;-1.30;99.90;;;;;;4961095;28;20034;-48
2022/02/10 01:34:49;;;;;;;5.85;3.30;;;-1.30;99.90;;;;;;4996934;28;20042;-48
2022/02/10 01:37:16;;;;;;;4.47;4.07;;;-1.30;99.90;;;;;;5000438;28;20033;-48
2022/02/10 01:39:48;;;;;;;4.35;3.95;;;-1.40;99.90;;;;;;4985741;28;20041;-48
2022/02/10 02:03:35;;;;;;;2.95;2.70;;;-1.50;99.90;;;;;;5007592;28;20041;-47
2022/02/10 02:06:06;;;;;;;2.80;2.60;;;-1.40;99.90;;;;;;5009412;28;20040;-48
2022/02/10 02:08:35;;;;;;;4.97;2.30;;;-1.40;99.90;;;;;;5010215;28;20025;-47
2022/02/10 02:11:02;;;;;;;4.68;2.97;;;-1.50;99.90;;;;;;5012511;28;20036;-48
2022/02/10 02:13:28;;;;;;;4.18;3.33;;;-1.60;99.90;;;;;;5010414;28;20086;-49
2022/02/10 02:15:54;;;;;;;3.53;2.97;;;-1.80;99.90;;;;;;5009682;28;20057;-49
2022/02/10 02:18:20;;;;;;;3.53;2.55;;;-1.80;99.90;;;;;;5008550;28;20115;-47
2022/02/10 02:20:48;;;;;;;2.60;2.25;;;-1.80;99.90;;;;;;5009710;28;20032;-50
2022/02/10 02:23:15;;;;;;;2.72;2.45;;;-1.90;99.90;;;;;;5011694;28;20041;-47
2022/02/10 02:25:41;;;;;;;2.67;2.40;;;-1.90;99.90;;;;;;5009058;28;20072;-49
2022/02/10 02:28:10;;;;;;;4.22;2.70;;;-1.80;99.90;;;;;;5008235;28;20398;-48
2022/02/10 02:30:48;;;;;;;2.22;2.05;;;-1.70;99.90;;;;;;5008622;28;20105;-49
2022/02/10 03:06:16;;;;;;;2.55;2.38;;;-1.70;99.90;;;;;;5008854;28;20512;-47
2022/02/10 03:08:48;;;;;;;2.50;2.13;;;-1.70;99.90;;;;;;5008505;28;20025;-47
2022/02/10 03:11:15;;;;;;;2.95;2.60;;;-1.70;99.90;;;;;;5009306;28;20037;-47
2022/02/10 03:14:06;;;;;;;3.78;2.72;;;-1.70;99.90;;;;;;5008712;28;20320;-47
2022/02/10 03:22:00;;;;;;;3.20;2.57;;;-1.70;99.90;;;;;;5010014;28;20014;-47
2022/02/10 04:21:37;;;;;;;6.25;3.35;;;-2.00;99.90;;;;;;5007463;28;20129;-47
2022/02/10 04:26:39;;;;;;;3.85;3.55;;;-2.20;99.90;;;;;;5007844;28;20034;-47
2022/02/10 04:56:19;;;;;;;3.30;3.00;;;-2.10;99.90;;;;;;5006393;28;20041;-47
2022/02/10 05:04:35;;;;;;;3.40;3.10;;;-2.10;99.90;;;;;;5008287;28;21750;-47
2022/02/10 05:13:39;;;;;;;2.72;2.50;;;-2.10;99.90;;;;;;5006520;28;20525;-47
2022/02/10 05:33:18;;;;;;;3.72;3.13;;;-2.30;99.90;;;;;;5006966;28;20060;-47
2022/02/10 05:35:48;;;;;;;3.50;3.20;;;-2.20;99.90;;;;;;5006797;28;20026;-47
2022/02/10 05:38:25;;;;;;;5.38;4.20;;;-2.20;99.90;;;;;;5006206;28;20096;-47
2022/02/10 05:43:41;;;;;;;7.00;3.47;;;-2.30;99.90;;;;;;5011434;28;20026;-47
2022/02/10 05:46:22;;;;;;;4.22;3.53;;;-2.30;99.90;;;;;;5012116;28;20037;-47
2022/02/10 06:02:53;;;;;;;3.83;2.47;;;-2.50;99.90;;;;;;5008429;28;20529;-47
2022/02/10 06:50:37;;;;;;;6.13;4.18;;;-2.30;99.90;;;;;;5009806;28;20083;-46
2022/02/10 07:14:10;;;;;;;6.65;4.63;;;-2.10;99.90;;;;;;5007011;28;20034;-48
2022/02/10 07:54:40;;;;;;;9.90;5.35;;;-0.60;99.90;;;;;;5028956;28;20040;-48
2022/02/10 09:03:06;;;;;;;7.93;3.60;;;3.10;99.90;;;;;;5034048;28;20037;-49
2022/02/10 09:13:18;;;;;;;4.18;2.85;;;3.70;99.90;;;;;;5031384;28;21858;-49
2022/02/10 09:19:20;;;;;;;3.40;2.42;;;4.00;99.90;;;;;;5029965;28;20061;-48
2022/02/10 09:50:45;;;;;;;3.75;2.70;;;5.40;99.90;;;;;;5037311;28;20075;-49
2022/02/10 10:02:26;;;;;;;4.53;2.35;;;6.20;99.90;;;;;;5039644;28;20056;-48
2022/02/10 10:05:01;;;;;;;3.15;2.47;;;6.50;99.90;;;;;;5039286;28;20029;-48
2022/02/10 10:10:33;;;;;;;7.75;2.65;;;6.90;99.90;;;;;;5038484;28;20025;-48
2022/02/10 10:15:53;;;;;;;7.18;2.22;;;7.10;99.90;;;;;;5038304;28;20524;-49
2022/02/10 10:23:50;;;;;;;2.40;2.20;;;7.40;99.90;;;;;;5037639;28;20025;-48
2022/02/10 10:51:10;;;;;;;3.58;2.47;;;8.30;99.90;;;;;;5043913;28;20033;-48
2022/02/10 10:58:45;;;;;;;4.38;2.85;;;8.50;99.90;;;;;;5042212;28;20029;-48
2022/02/10 11:04:22;;;;;;;5.35;2.50;;;8.60;99.90;;;;;;5042987;28;20033;-49
2022/02/10 11:38:43;;;;;;;5.70;2.90;;;9.80;99.90;;;;;;5040284;28;20040;-48
2022/02/10 12:33:12;;;;;;;5.32;3.13;;;10.10;97.10;;;;;;5038598;28;20037;-47
2022/02/10 14:15:02;;;;;;;8.38;3.83;;;10.10;99.90;;;;;;5040491;28;20041;-49
2022/02/10 14:17:45;;;;;;;5.28;3.67;;;10.10;99.90;;;;;;5038827;28;20512;-49
2022/02/10 14:20:33;;;;;;;9.43;3.50;;;10.10;99.90;;;;;;5041088;28;20430;-48
2022/02/10 14:23:16;;;;;;;9.02;3.40;;;10.30;99.90;;;;;;5039064;28;20033;-49
2022/02/10 14:26:31;;;;;;;5.13;3.42;;;10.20;99.90;;;;;;5039921;28;20086;-49
2022/02/10 14:28:31;;;;;;;5.60;3.50;;;10.30;99.90;;;;;;5038240;28;20036;-49
2022/02/10 14:31:04;;;;;;;7.30;3.00;;;10.30;99.90;;;;;;5035911;28;20052;-49
2022/02/10 14:33:34;;;;;;;8.70;3.60;;;10.40;99.90;;;;;;5042787;28;20020;-49
2022/02/10 14:38:45;;;;;;;7.15;3.45;;;10.50;99.90;;;;;;5041110;28;20029;-49
2022/02/10 15:56:41;;;;;;;7.53;4.00;;;10.20;99.90;;;;;;5027761;28;20025;-48
2022/02/10 16:18:31;;;;;;;5.50;4.10;;;9.70;99.90;;;;;;4990714;28;20041;-48
2022/02/10 16:21:02;;;;;;;7.68;3.75;;;9.50;99.90;;;;;;5032213;28;20155;-49
2022/02/10 16:23:31;;;;;;;8.13;4.32;;;9.40;99.90;;;;;;5026977;28;20032;-48
2022/02/10 16:26:10;;;;;;;;;;;9.40;99.90;;;;;;5033024;28;20035;-48
2022/02/10 16:28:39;;;;;;;7.10;4.18;;;9.30;99.90;;;;;;5037373;28;19909;-48
2022/02/10 16:31:05;;;;;;;5.72;3.70;;;9.20;99.90;;;;;;5028040;28;20060;-49
2022/02/10 16:33:33;;;;;;;5.97;4.00;;;9.10;99.90;;;;;;5039591;28;20047;-48
2022/02/10 16:35:59;;;;;;;6.35;3.63;;;9.00;99.90;;;;;;5027500;28;20712;-48
2022/02/10 16:38:26;;;;;;;5.65;3.83;;;9.00;99.90;;;;;;5022335;28;20029;-47
2022/02/10 16:40:52;;;;;;;5.53;4.07;;;8.90;99.90;;;;;;5024692;28;20056;-48
2022/02/10 16:43:17;;;;;;;5.82;3.47;;;8.80;99.90;;;;;;5029188;28;20105;-48
2022/02/10 16:45:43;;;;;;;4.47;3.88;;;8.80;99.90;;;;;;5049622;28;20034;-48
2022/02/10 16:48:10;;;;;;;8.18;3.88;;;8.80;99.90;;;;;;5028654;28;20029;-48
2022/02/10 16:50:37;;;;;;;4.38;3.40;;;8.80;99.90;;;;;;5026227;28;20082;-48
2022/02/10 16:53:08;;;;;;;10.93;3.88;;;8.80;99.90;;;;;;5027752;28;20036;-48
2022/02/10 17:27:43;;;;;;;6.40;3.70;;;8.50;99.90;;;;;;5027436;28;20024;-47
2022/02/10 17:51:59;;;;;;;9.05;4.65;;;8.30;99.90;;;;;;5040729;28;20052;-47
2022/02/10 17:54:27;;;;;;;9.52;5.07;;;8.30;99.90;;;;;;5029564;28;20040;-47
2022/02/10 17:56:53;;;;;;;7.25;5.30;;;8.40;99.90;;;;;;5032036;28;20051;-47
2022/02/10 17:59:21;;;;;;;10.10;5.32;;;8.40;99.90;;;;;;5029511;28;20025;-47
2022/02/10 18:01:50;;;;;;;8.65;5.57;;;8.40;99.90;;;;;;5031599;28;20121;-48
2022/02/10 18:04:17;;;;;;;10.10;5.97;;;8.30;99.90;;;;;;5031298;28;20022;-48
2022/02/10 18:06:46;;;;;;;9.60;6.65;;;8.30;99.90;;;;;;5039429;28;20494;-48
2022/02/10 18:14:27;;;;;;;11.93;6.53;;;8.30;99.90;;;;;;5027964;28;20120;-47
2022/02/10 18:17:05;;;;;;;9.00;6.28;;;8.20;99.90;;;;;;5024972;28;20057;-47
2022/02/10 18:19:41;;;;;;;9.85;5.95;;;8.20;99.90;;;;;;5029118;28;20713;-47
2022/02/10 18:24:58;;;;;;;9.95;7.13;;;8.00;99.90;;;;;;5026462;28;20151;-47
2022/02/10 18:27:37;;;;;;;8.25;5.78;;;7.90;99.90;;;;;;5030909;28;20491;-47
2022/02/10 19:09:55;;;;;;;10.35;6.25;;;7.40;99.90;;;;;;5030134;28;20033;-48
2022/02/10 19:12:29;;;;;;;15.48;6.07;;;7.40;99.90;;;;;;5027666;28;20044;-49
2022/02/10 19:15:05;;;;;;;9.45;5.68;;;7.40;99.90;;;;;;5030540;28;20100;-48
2022/02/10 19:17:31;;;;;;;10.57;5.88;;;7.40;99.90;;;;;;5028945;28;20053;-47
2022/02/10 19:19:56;;;;;;;11.25;6.30;;;7.40;99.90;;;;;;5026774;28;20033;-48
2022/02/10 19:22:22;;;;;;;11.98;5.75;;;7.40;99.90;;;;;;5048605;28;20030;-48
2022/02/10 19:24:49;;;;;;;8.13;5.78;;;7.40;99.90;;;;;;5028377;28;20032;-47
2022/02/10 19:27:16;;;;;;;8.70;5.78;;;7.30;99.90;;;;;;5015715;28;20026;-48
2022/02/10 19:29:42;;;;;;;10.00;5.40;;;7.30;99.90;;;;;;5019245;28;20030;-47
2022/02/10 19:32:13;;;;;;;9.25;5.82;;;7.30;99.90;;;;;;5022570;28;20649;-48
2022/02/10 19:34:38;;;;;;;14.38;5.50;;;7.30;99.90;;;;;;5018484;28;20044;-48
2022/02/10 19:37:05;;;;;;;9.80;5.88;;;7.30;99.90;;;;;;5019223;28;20030;-47
2022/02/10 19:39:30;;;;;;;11.38;5.78;;;7.30;99.90;;;;;;5024567;28;20037;-47
2022/02/10 19:41:56;;;;;;;9.75;5.65;;;7.20;99.90;;;;;;5019355;28;20049;-47
2022/02/10 19:44:22;;;;;;;8.63;5.80;;;7.20;99.90;;;;;;5022503;28;20075;-47
2022/02/10 19:46:47;;;;;;;8.88;5.22;;;7.20;99.90;;;;;;5016927;28;20491;-47
2022/02/10 19:49:24;;;;;;;9.05;5.85;;;7.20;99.90;;;;;;5014449;28;20112;-47
2022/02/10 19:51:50;;;;;;;7.40;5.72;;;7.20;99.90;;;;;;5016736;28;20041;-47
2022/02/10 19:54:23;;;;;;;8.68;5.18;;;7.20;99.90;;;;;;5012090;28;20061;-48
2022/02/10 19:56:53;;;;;;;7.93;5.35;;;7.10;99.90;;;;;;5016943;28;20053;-47
2022/02/10 19:59:22;;;;;;;8.20;5.20;;;7.10;99.90;;;;;;5019872;28;20026;-48
2022/02/10 20:01:49;;;;;;;7.80;4.95;;;7.10;99.90;;;;;;5013898;28;20029;-47
2022/02/10 20:04:16;;;;;;;11.90;5.40;;;7.10;99.90;;;;;;5019172;28;20014;-48
2022/02/10 20:06:42;;;;;;;6.85;5.30;;;7.20;99.90;;;;;;5013452;28;20029;-48
2022/02/10 20:09:07;;;;;;;7.80;5.15;;;7.20;99.90;;;;;;5020045;28;20426;-48
2022/02/10 20:11:33;;;;;;;8.10;5.13;;;7.10;99.90;;;;;;5019041;28;20378;-47
2022/02/10 20:13:59;;;;;;;11.95;5.45;;;7.20;99.90;;;;;;5020257;28;20116;-47
2022/02/10 20:16:25;;;;;;;9.25;5.53;;;7.10;99.90;;;;;;4992566;28;20556;-47
2022/02/10 20:18:50;;;;;;;9.35;6.05;;;7.10;99.90;;;;;;5021381;28;20041;-47
2022/02/10 20:21:16;;;;;;;9.05;5.50;;;7.10;99.90;;;;;;5014396;28;20120;-47
2022/02/10 20:23:42;;;;;;;10.50;5.50;;;7.10;99.90;;;;;;5018952;28;20043;-47
2022/02/10 20:26:12;;;;;;;10.68;5.65;;;7.10;99.90;;;;;;5019180;28;20128;-47
2022/02/10 20:28:39;;;;;;;10.77;5.43;;;7.00;99.90;;;;;;5018218;28;20047;-47
2022/02/10 20:31:05;;;;;;;10.32;6.40;;;7.00;99.90;;;;;;5001762;28;20038;-47
2022/02/10 20:33:31;;;;;;;10.88;5.10;;;7.00;99.90;;;;;;5018652;28;20498;-48
2022/02/10 20:36:00;;;;;;;14.75;7.05;;;7.00;99.90;;;;;;5012630;28;20714;-47
2022/02/10 20:38:28;;;;;;;11.20;5.75;;;7.00;99.90;;;;;;5017242;28;20033;-47
2022/02/10 20:41:06;;;;;;;11.95;6.82;;;7.00;99.90;;;;;;5012622;28;20059;-47
2022/02/10 20:43:32;;;;;;;21.20;8.02;;;7.00;99.90;;;;;;5020807;28;20038;-47
2022/02/10 20:46:04;;;;;;;16.33;7.18;;;7.00;99.90;;;;;;5013087;28;20088;-47
2022/02/10 20:48:32;;;;;;;12.35;6.68;;;7.00;99.90;;;;;;5013247;28;20017;-47
2022/02/10 20:51:00;;;;;;;20.88;7.55;;;7.00;99.90;;;;;;5013896;28;20631;-47
2022/02/10 20:53:27;;;;;;;11.48;6.65;;;6.90;99.90;;;;;;5013981;28;20786;-47
2022/02/10 20:55:54;;;;;;;16.00;7.90;;;6.90;99.90;;;;;;5015440;28;20044;-47
2022/02/10 20:58:23;;;;;;;11.75;7.22;;;6.90;99.90;;;;;;5015379;28;20072;-48
2022/02/10 21:00:50;;;;;;;12.25;7.45;;;6.90;99.90;;;;;;5011926;28;20037;-48
2022/02/10 21:03:18;;;;;;;14.88;6.97;;;6.90;99.90;;;;;;5006557;28;20029;-48
2022/02/10 21:05:45;;;;;;;11.55;6.63;;;6.90;99.90;;;;;;5010834;28;20037;-48
2022/02/10 21:08:17;;;;;;;12.77;7.05;;;6.90;99.90;;;;;;5014504;28;20038;-48
2022/02/10 21:10:43;;;;;;;9.95;5.75;;;6.80;99.90;;;;;;5011342;28;20112;-47
2022/02/10 21:13:11;;;;;;;9.52;5.82;;;6.80;99.90;;;;;;5012313;28;20028;-48
2022/02/10 21:15:40;;;;;;;9.48;6.28;;;6.80;99.90;;;;;;5017165;28;20125;-48
2022/02/10 21:18:06;;;;;;;9.50;6.10;;;6.70;99.90;;;;;;5011913;28;20052;-50
2022/02/10 21:20:36;;;;;;;12.93;6.45;;;6.60;99.90;;;;;;5016392;28;20688;-48
2022/02/10 21:25:41;;;;;;;10.48;5.60;;;6.60;99.90;;;;;;5016149;28;20317;-48
2022/02/10 21:29:05;;;;;;;12.82;6.68;;;6.60;99.90;;;;;;5051860;27;64432;-47
2022/02/10 21:31:31;;;;;;;10.82;6.45;;;6.60;99.90;;;;;;5050884;28;20167;-46
2022/02/10 21:34:11;;;;;;;9.68;6.03;;;6.60;99.90;;;;;;5053839;28;20040;-46
2022/02/10 21:48:00;;;;;;;25.48;8.68;;;6.40;99.90;;;;;;5047713;28;20040;-47
2022/02/10 22:03:55;;;;;;;12.63;6.47;;;6.40;99.90;;;;;;5050398;28;20024;-47
2022/02/10 22:11:46;;;;;;;11.63;5.93;;;6.40;99.90;;;;;;5054801;28;20028;-47
2022/02/10 22:19:38;;;;;;;11.50;6.60;;;6.30;99.90;;;;;;5054912;28;20485;-47
2022/02/10 22:22:10;;;;;;;12.15;6.78;;;6.30;99.90;;;;;;5054229;28;20572;-48
2022/02/10 22:24:36;;;;;;;9.07;6.35;;;6.30;99.90;;;;;;5055783;28;20020;-48
2022/02/10 22:27:01;;;;;;;12.00;6.13;;;6.20;99.90;;;;;;5056296;28;20052;-49
2022/02/10 22:29:32;;;;;;;11.90;6.05;;;6.30;99.90;;;;;;5054010;28;20452;-47
2022/02/10 22:32:47;;;;;;;9.75;5.30;;;6.30;99.90;;;;;;5051432;27;20040;-50
2022/02/10 22:34:52;;;;;;;11.75;6.53;;;6.40;99.90;;;;;;5047087;28;20033;-48
2022/02/10 22:37:19;;;;;;;10.20;5.88;;;6.40;99.90;;;;;;5053217;28;20139;-48
2022/02/10 22:39:47;;;;;;;11.40;5.40;;;6.40;99.90;;;;;;5043244;28;20029;-49
2022/02/10 22:42:13;;;;;;;12.70;6.22;;;6.40;99.90;;;;;;5040139;28;20115;-49
2022/02/10 22:44:39;;;;;;;10.75;5.97;;;6.40;99.90;;;;;;5039451;28;20059;-48
2022/02/10 22:47:07;;;;;;;8.82;5.13;;;6.40;99.90;;;;;;5038825;28;20041;-47
2022/02/10 22:49:33;;;;;;;10.60;6.80;;;6.40;99.90;;;;;;5037181;28;21589;-47
2022/02/10 22:52:03;;;;;;;10.77;5.93;;;6.40;99.90;;;;;;5043223;28;20180;-47
2022/02/10 22:54:28;;;;;;;9.10;5.90;;;6.40;99.90;;;;;;5039676;28;20386;-48
2022/02/10 22:56:54;;;;;;;11.32;6.28;;;6.40;99.90;;;;;;5039051;28;20226;-47
2022/02/10 22:59:21;;;;;;;12.52;6.10;;;6.40;99.90;;;;;;5053657;28;20813;-48
2022/02/10 23:01:47;;;;;;;10.05;6.40;;;6.40;99.90;;;;;;5039826;28;20041;-48
2022/02/10 23:04:13;;;;;;;8.93;5.60;;;6.40;99.90;;;;;;5038795;28;20037;-48
2022/02/10 23:06:39;;;;;;;13.07;6.38;;;6.40;99.90;;;;;;5039359;28;20051;-47
2022/02/10 23:11:53;;;;;;;8.95;5.68;;;6.40;99.90;;;;;;5039310;28;21715;-48
2022/02/10 23:14:19;;;;;;;11.02;5.90;;;6.40;99.90;;;;;;5038430;28;20029;-48
2022/02/10 23:16:46;;;;;;;10.55;5.88;;;6.50;99.90;;;;;;5040124;28;20031;-48
2022/02/10 23:19:12;;;;;;;9.95;6.32;;;6.50;99.90;;;;;;5043797;28;20469;-49
2022/02/10 23:21:38;;;;;;;8.98;5.65;;;6.50;99.90;;;;;;5040392;28;20112;-49
2022/02/10 23:24:05;;;;;;;11.48;6.88;;;6.50;99.90;;;;;;5037694;28;20382;-48
2022/02/10 23:26:31;;;;;;;9.32;5.45;;;6.50;99.90;;;;;;5039465;28;20029;-48
2022/02/10 23:28:56;;;;;;;9.48;5.45;;;6.50;99.90;;;;;;5038842;28;20041;-48
2022/02/10 23:31:26;;;;;;;7.38;4.55;;;6.40;99.90;;;;;;5038922;28;20037;-49
2022/02/10 23:33:56;;;;;;;8.60;5.25;;;6.30;99.90;;;;;;5038425;28;20082;-48
2022/02/10 23:39:27;;;;;;;8.48;5.18;;;6.20;99.90;;;;;;5035581;28;20482;-48
2022/02/10 23:44:27;;;;;;;6.93;4.57;;;6.20;99.90;;;;;;5039941;28;20414;-48
2022/02/10 23:46:54;;;;;;;8.50;4.57;;;6.10;99.90;;;;;;5038853;28;20092;-48
2022/02/10 23:49:22;;;;;;;8.77;4.90;;;6.10;99.90;;;;;;5037266;28;20024;-48
2022/02/10 23:51:55;;;;;;;4.82;3.85;;;6.10;99.90;;;;;;5039148;28;20032;-49
2022/02/10 23:54:21;;;;;;;8.57;4.10;;;6.00;99.90;;;;;;5037685;28;20472;-48
2022/02/10 23:56:54;;;;;;;6.10;4.60;;;6.00;99.90;;;;;;5039649;28;20033;-48
